Latest Weather Observations for Karratha

IDW60801

Issued at 1:05 pm WST Friday 25 April 2014 (issued every 30 minutes, with the page automatically refreshed every 10 minutes)

About weather observations | Map of weather stations | Latest weather observations for WA | Other Formats
Station Details ID: 004083 Name: KARRATHA AERO Lat: -20.71 Lon: 116.77 Height: 5.3 m
Data from the previous 72 hours. | See also: Recent months at Karratha
Date/Time
WST
Temp
°C
App
Temp
°C
Dew
Point
Rel
Hum
%
Delta-T
°C
Wind Press
QNH
hPa
Press
MSL
hPa
Rain
since 9 am
mm
Dir
 
Spd
km/h
Gust
km/h
Spd
kts
Gust
kts
25/01:00pm 33.2 31.4 12.2 28 12.5 NNW 13 20 7 11 1008.5 - 0.0
25/12:30pm 33.4 32.6 14.0 31 11.9 WNW 11 17 6 9 1009.0 - 0.0
25/12:00pm 33.1 32.0 13.2 30 12.0 WNW 11 17 6 9 1009.4 1009.4 0.0
25/11:30am 32.5 30.5 12.7 30 11.8 WSW 15 20 8 11 1010.2 - 0.0
25/11:00am 32.4 30.6 12.1 29 12.0 W 13 17 7 9 1010.5 - 0.0
25/10:30am 31.3 31.0 14.4 35 10.3 NNW 9 11 5 6 1010.4 - 0.0
25/10:00am 30.9 30.6 14.5 37 10.0 N 9 11 5 6 1010.4 - 0.0
25/09:30am 30.0 30.2 12.9 35 10.1 SSW 4 9 2 5 1010.4 - 0.0
25/09:00am 29.4 28.9 12.8 36 9.8 S 7 11 4 6 1010.5 1010.5 0.0
25/08:30am 29.2 29.1 13.8 39 9.2 SW 7 11 4 6 1010.6 - 0.0
25/08:00am 27.0 28.0 15.4 49 7.1 SSW 4 7 2 4 1010.5 - 0.0
25/07:30am 24.8 26.0 17.3 63 4.7 SSW 7 9 4 5 1010.2 - 0.0
25/07:00am 22.1 22.7 16.8 72 3.2 SW 9 11 5 6 1009.8 - 0.0
25/06:30am 21.0 21.8 16.4 75 2.8 S 7 9 4 5 1009.6 - 0.0
25/06:00am 21.2 21.7 16.6 75 2.8 SSW 9 11 5 6 1009.4 1009.4 0.0
25/05:30am 21.3 22.2 16.7 75 2.8 S 7 9 4 5 1009.2 - 0.0
25/05:00am 21.5 22.1 16.7 74 2.9 S 9 9 5 5 1008.9 - 0.0
25/04:30am 22.5 23.1 17.6 74 3.0 SW 11 13 6 7 1009.1 - 0.0
25/04:00am 22.4 23.0 17.8 75 2.9 SW 11 11 6 6 1009.1 - 0.0
25/03:30am 22.5 23.6 18.1 76 2.7 SW 9 11 5 6 1008.9 - 0.0
25/03:00am 22.9 23.7 18.2 75 2.9 SW 11 11 6 6 1009.1 1009.1 0.0
25/02:30am 23.0 23.9 18.3 75 2.9 SW 11 11 6 6 1009.1 - 0.0
25/02:00am 23.7 24.7 18.6 73 3.2 SW 11 13 6 7 1009.2 - 0.0
25/01:30am 23.9 24.7 19.0 74 3.1 SW 13 15 7 8 1009.4 - 0.0
25/01:00am 24.2 25.0 19.1 73 3.3 SW 13 15 7 8 1009.5 - 0.0
25/12:30am 24.8 26.5 20.1 75 3.0 SW 11 15 6 8 1009.6 - 0.0
25/12:00am 24.1 26.5 20.0 78 2.7 SW 7 11 4 6 1009.8 1009.8 0.0
 
Date/Time
WST
Temp
°C
App
Temp
°C
Dew
Point
Rel
Hum
%
Delta-T
°C
Wind Press
QNH
hPa
Press
MSL
hPa
Rain
since 9 am
mm
Dir
 
Spd
km/h
Gust
km/h
Spd
kts
Gust
kts
24/11:30pm 24.1 26.7 20.4 80 2.4 SW 7 11 4 6 1010.1 - 0.0
24/11:00pm 24.7 27.6 21.0 80 2.4 SW 7 11 4 6 1010.1 - 0.0
24/10:30pm 25.5 28.1 22.0 81 2.3 SW 11 13 6 7 1010.3 - 0.0
24/10:00pm 27.4 29.4 23.0 77 3.0 W 17 19 9 10 1010.4 - 0.0
24/09:30pm 27.8 29.3 23.0 75 3.3 W 20 22 11 12 1010.3 - 0.0
24/09:00pm 27.9 30.0 23.1 75 3.3 W 17 20 9 11 1010.3 1010.3 0.0
24/08:30pm 28.1 29.7 22.8 73 3.6 W 19 22 10 12 1010.2 - 0.0
24/08:00pm 28.3 29.6 22.3 70 4.1 W 19 20 10 11 1010.0 - 0.0
24/07:30pm 28.7 29.9 21.5 65 4.8 W 17 19 9 10 1009.7 - 0.0
24/07:00pm 29.0 29.5 19.3 55 6.3 W 15 17 8 9 1009.4 - 0.0
24/06:30pm 29.2 29.3 18.3 51 7.0 W 15 17 8 9 1009.2 - 0.0
24/06:00pm 29.8 29.6 17.6 48 7.8 WNW 15 19 8 10 1008.9 1008.9 0.0
24/05:30pm 30.6 30.1 17.7 46 8.2 WNW 17 20 9 11 1008.7 - 0.0
24/05:00pm 31.1 30.3 18.1 46 8.4 WNW 19 22 10 12 1008.3 - 0.0
24/04:30pm 32.0 30.5 16.3 39 9.9 WNW 19 24 10 13 1008.0 - 0.0
24/04:00pm 32.5 30.8 16.3 37 10.2 WNW 20 24 11 13 1007.9 - 0.0
24/03:30pm 32.9 31.2 16.3 37 10.5 WNW 20 26 11 14 1007.7 - 0.0
24/03:00pm 33.2 32.3 17.8 40 9.9 WNW 19 26 10 14 1007.6 1007.6 0.0
24/02:30pm 34.3 33.1 16.2 34 11.4 WNW 17 20 9 11 1007.7 - 0.0
24/02:00pm 34.2 33.0 15.1 31 11.9 NW 15 20 8 11 1008.0 - 0.0
24/01:30pm 34.3 32.1 13.2 28 12.8 NW 17 22 9 12 1008.4 - 0.0
24/01:00pm 34.5 32.3 12.2 26 13.3 WNW 15 20 8 11 1008.8 - 0.0
24/12:30pm 33.9 32.8 14.4 31 12.0 WNW 13 20 7 11 1009.3 - 0.0
24/12:00pm 34.1 31.0 8.7 21 14.4 NW 15 20 8 11 1009.7 1009.7 0.0
24/11:30am 33.7 31.2 9.7 23 13.7 WNW 13 17 7 9 1010.3 - 0.0
24/11:00am 33.0 31.8 14.1 32 11.5 NW 13 17 7 9 1010.7 - 0.0
24/10:30am 31.8 33.4 19.1 47 8.3 WNW 9 15 5 8 1011.0 - 0.0
24/10:00am 30.3 32.3 20.8 56 6.3 W 11 13 6 7 1011.1 - 0.0
24/09:30am 29.3 31.6 22.0 64 4.9 WSW 13 17 7 9 1011.4 - 0.0
24/09:00am 27.7 29.9 23.3 77 3.0 WSW 17 20 9 11 1011.3 1011.3 0.0
24/08:30am 27.1 29.8 24.2 84 2.0 WSW 17 20 9 11 1011.2 - 0.0
24/08:00am 26.0 29.2 23.1 84 2.0 WSW 11 13 6 7 1010.9 - 0.0
24/07:30am 24.2 27.9 22.5 90 1.1 SW 7 9 4 5 1010.6 - 0.0
24/07:00am 22.3 25.6 21.8 97 0.3 WSW 7 9 4 5 1010.3 - 0.0
24/06:30am 21.2 23.7 20.2 94 0.6 SW 7 9 4 5 1010.1 - 0.0
24/06:00am 22.7 24.9 21.9 95 0.5 WSW 13 15 7 8 1009.9 1009.9 0.0
24/05:30am 22.1 24.5 20.9 93 0.8 WSW 9 11 5 6 1009.9 - 0.0
24/05:00am 22.4 24.1 21.0 92 0.9 WSW 13 13 7 7 1009.7 - 0.0
24/04:30am 21.7 23.4 20.2 91 1.0 WSW 11 11 6 6 1009.4 - 0.0
24/04:00am 21.7 23.3 20.0 90 1.1 SW 11 13 6 7 1009.4 - 0.0
24/03:30am 21.8 23.0 19.9 89 1.2 SW 13 13 7 7 1009.5 - 0.0
24/03:00am 22.7 24.5 20.4 87 1.5 WSW 11 11 6 6 1009.2 1009.2 0.0
24/02:30am 22.7 24.0 20.2 86 1.6 WSW 13 13 7 7 1009.3 - 0.0
24/02:00am 22.5 24.1 20.0 86 1.6 SW 11 13 6 7 1009.4 - 0.0
24/01:30am 23.1 24.4 20.2 84 1.9 SW 13 13 7 7 1009.9 - 0.0
24/01:00am 23.6 25.4 20.3 82 2.1 WSW 11 13 6 7 1010.3 - 0.0
24/12:30am 24.3 26.3 20.8 81 2.3 SW 11 15 6 8 1010.4 - 0.0
24/12:00am 24.5 26.4 21.4 83 2.0 WSW 13 13 7 7 1010.5 1010.5 0.0
 
Date/Time
WST
Temp
°C
App
Temp
°C
Dew
Point
Rel
Hum
%
Delta-T
°C
Wind Press
QNH
hPa
Press
MSL
hPa
Rain
since 9 am
mm
Dir
 
Spd
km/h
Gust
km/h
Spd
kts
Gust
kts
23/11:30pm 24.7 27.1 21.6 83 2.1 WSW 11 13 6 7 1010.5 - 0.0
23/11:00pm 26.0 28.5 22.5 81 2.4 WSW 13 17 7 9 1010.9 - 0.0
23/10:30pm 26.8 29.0 22.6 78 2.8 WSW 15 19 8 10 1010.9 - 0.0
23/10:00pm 26.7 29.0 22.8 79 2.6 WSW 15 17 8 9 1011.2 - 0.0
23/09:30pm 27.2 29.5 22.8 77 3.0 WSW 15 20 8 11 1011.4 - 0.0
23/09:00pm 27.7 29.8 23.1 76 3.1 W 17 20 9 11 1011.4 1011.4 0.0
23/08:30pm 28.1 29.3 22.1 70 4.0 W 19 20 10 11 1011.4 - 0.0
23/08:00pm 28.2 29.9 22.4 71 3.9 W 17 20 9 11 1011.4 - 0.0
23/07:30pm 28.3 30.0 21.6 67 4.5 W 15 19 8 10 1011.2 - 0.0
23/07:00pm 28.7 30.3 21.5 65 4.8 W 15 20 8 11 1010.9 - 0.0
23/06:30pm 28.8 31.1 22.1 67 4.5 WNW 13 17 7 9 1010.8 - 0.0
23/06:00pm 29.4 31.0 20.8 60 5.7 WNW 13 17 7 9 1010.5 1010.5 0.0
23/05:30pm 30.2 31.3 21.3 59 6.0 WNW 17 20 9 11 1010.1 - 0.0
23/05:00pm 31.3 32.8 21.2 55 6.8 NNW 15 20 8 11 1009.8 - 0.0
23/04:30pm 31.7 32.5 20.6 51 7.4 NW 17 20 9 11 1009.4 - 0.0
23/04:00pm 32.5 32.8 19.7 46 8.4 NW 17 22 9 12 1009.3 - 0.0
23/03:30pm 32.5 33.0 20.1 48 8.2 NNW 17 20 9 11 1009.2 - 0.0
23/03:00pm 32.9 33.3 19.0 43 9.1 NNW 15 20 8 11 1009.4 1009.4 0.0
23/02:30pm 33.5 32.9 17.6 38 10.2 N 17 22 9 12 1009.5 - 0.0
23/02:00pm 33.3 33.3 16.2 36 10.8 N 11 15 6 8 1009.5 - 0.0
23/01:30pm 34.8 34.0 15.2 31 12.2 N 13 17 7 9 1010.0 - 0.0
23/01:00pm 34.4 33.9 14.8 30 12.1 N 11 15 6 8 1010.1 - 0.0
23/12:30pm 34.4 33.5 14.8 30 12.1 N 13 19 7 10 1010.4 - 0.0
23/12:00pm 34.1 33.7 15.1 32 11.8 N 11 15 6 8 1010.9 1010.9 0.0
23/11:30am 33.3 33.3 15.3 34 11.2 NNW 9 13 5 7 1011.4 - 0.0
23/11:00am 32.8 33.6 17.4 39 9.8 NNW 9 13 5 7 1011.7 - 0.0
23/10:30am 31.8 33.2 18.7 45 8.5 NNW 9 11 5 6 1012.1 - 0.0
23/10:00am 29.9 32.6 21.3 60 5.8 NW 9 11 5 6 1012.3 - 0.0
23/09:30am 31.3 34.7 20.9 54 6.9 S 4 9 2 5 1012.3 - 0.0
23/09:00am 29.6 31.6 17.8 49 7.5 SSE 4 9 2 5 1012.4 1012.4 0.0
23/08:30am 27.6 30.8 21.2 68 4.3 SSW 6 9 3 5 1012.3 - 0.0
23/08:00am 25.9 29.8 23.0 84 2.0 WSW 7 9 4 5 1012.1 - 0.0
23/07:30am 24.4 29.1 22.7 90 1.1 SW 2 7 1 4 1012.0 - 0.0
23/07:00am 22.5 25.6 21.5 94 0.7 SSW 7 9 4 5 1011.7 - 0.0
23/06:30am 22.5 27.0 21.5 94 0.7 CALM 0 0 0 0 1011.6 - 0.0
23/06:00am 22.0 26.0 20.6 92 0.9 CALM 0 0 0 0 1011.6 1011.6 0.0
23/05:30am 22.5 26.6 20.8 90 1.1 CALM 0 0 0 0 1011.4 - 0.0
23/05:00am 22.8 25.9 21.1 90 1.1 SW 6 7 3 4 1011.3 - 0.0
23/04:30am 23.0 25.9 21.1 89 1.2 SW 7 9 4 5 1011.1 - 0.0
23/04:00am 23.1 25.7 21.2 89 1.2 WSW 9 11 5 6 1011.2 - 0.0
23/03:30am 23.4 25.8 21.5 89 1.3 SW 11 13 6 7 1011.1 - 0.0
23/03:00am 23.8 26.3 21.7 88 1.4 SW 11 13 6 7 1011.2 1011.2 0.0
23/02:30am 24.3 26.6 22.0 87 1.5 SW 13 13 7 7 1011.3 - 0.0
23/02:00am 24.2 27.0 22.3 89 1.3 SW 11 15 6 8 1011.5 - 0.0
23/01:30am 24.3 26.8 22.4 89 1.3 SW 13 15 7 8 1011.9 - 0.0
23/01:00am 24.2 26.4 21.9 87 1.5 SW 13 15 7 8 1012.2 - 0.0
23/12:30am 23.7 26.4 21.4 87 1.5 SSW 9 11 5 6 1012.4 - 0.0
23/12:00am 24.9 28.2 21.8 83 2.1 SSW 7 9 4 5 1012.5 1012.5 0.0
 
Date/Time
WST
Temp
°C
App
Temp
°C
Dew
Point
Rel
Hum
%
Delta-T
°C
Wind Press
QNH
hPa
Press
MSL
hPa
Rain
since 9 am
mm
Dir
 
Spd
km/h
Gust
km/h
Spd
kts
Gust
kts
22/11:30pm 27.3 30.0 23.5 80 2.6 W 15 17 8 9 1012.4 - 0.0
22/11:00pm 27.6 30.0 23.6 79 2.7 W 17 20 9 11 1012.5 - 0.0
22/10:30pm 27.6 30.1 23.2 77 3.0 W 15 19 8 10 1012.8 - 0.0
22/10:00pm 27.6 30.7 22.8 75 3.3 W 11 15 6 8 1013.0 - 0.0
22/09:30pm 28.1 29.7 21.4 67 4.5 W 15 17 8 9 1013.1 - 0.0
22/09:00pm 28.3 30.0 21.6 67 4.5 W 15 17 8 9 1013.0 1013.0 0.0
22/08:30pm 28.1 30.1 21.6 68 4.3 W 13 15 7 8 1012.7 - 0.0
22/08:00pm 28.4 30.5 21.7 67 4.5 NW 13 17 7 9 1012.4 - 0.0
22/07:30pm 28.5 29.8 20.8 63 5.1 NNW 15 19 8 10 1012.1 - 0.0
22/07:00pm 28.8 29.7 20.0 59 5.8 NNW 15 19 8 10 1011.7 - 0.0
22/06:30pm 29.1 29.9 19.1 54 6.5 NNW 13 17 7 9 1011.4 - 0.0
22/06:00pm 29.5 29.5 18.0 50 7.3 N 15 20 8 11 1011.2 1011.2 0.0
22/05:30pm 30.2 30.2 18.9 50 7.3 N 17 20 9 11 1011.2 - 0.0
22/05:00pm 30.9 31.0 19.9 52 7.2 N 19 22 10 12 1011.1 - 0.0
22/04:30pm 32.1 32.4 19.7 48 8.2 N 17 22 9 12 1010.9 - 0.0
22/04:00pm 33.0 33.8 19.8 45 8.7 NNW 15 20 8 11 1010.9 - 0.0
22/03:30pm 33.2 33.6 18.9 42 9.3 NNW 15 20 8 11 1010.7 - 0.0
22/03:00pm 34.2 34.3 18.3 39 10.3 N 15 22 8 12 1010.7 1010.7 0.0
22/02:30pm 33.7 33.9 18.6 40 9.8 NNE 15 20 8 11 1010.6 - 0.0
22/02:00pm 33.8 33.0 16.2 35 11.1 NNE 15 19 8 10 1010.6 - 0.0
22/01:30pm 34.8 34.0 16.1 32 11.8 NE 15 20 8 11 1010.8 - 0.0

Other Formats:

Comma delimited format used in spreadsheet applications
http://www.bom.gov.au/fwo/IDW60801/IDW60801.95307.axf

JavaScript Object Notation format (JSON) in row-major order
http://www.bom.gov.au/fwo/IDW60801/IDW60801.95307.json